Time;durP1;ratioP1;P1;durP2;ratioP2;P2;SDS_P1;SDS_P2;PMS_P1;PMS_P2;Temp;Humidity;BMP_temperature;BMP_pressure;BME280_temperature;BME280_humidity;BME280_pressure;Samples;Min_cycle;Max_cycle;Signal;HPM_P1;HPM_P2
2022/04/28 00:11:18;;;;;;;7.75;3.60;;;;;;;9.12;54.55;101324.30;709382;1183;114755;-83
2022/04/28 00:26:21;;;;;;;10.00;3.63;;;;;;;9.19;54.08;101331.77;709442;1184;115452;-82
2022/04/28 00:41:25;;;;;;;4.80;2.70;;;;;;;9.13;53.98;101332.98;709291;1184;115192;-81
2022/04/28 00:56:30;;;;;;;6.40;3.40;;;;;;;9.03;54.83;101340.61;709219;1184;115234;-82
2022/04/28 01:11:34;;;;;;;6.33;3.30;;;;;;;8.98;56.10;101350.53;709061;1182;115614;-82
2022/04/28 01:26:40;;;;;;;8.30;3.15;;;;;;;9.15;55.08;101362.53;709148;1181;114143;-81
2022/04/28 01:41:44;;;;;;;8.70;3.33;;;;;;;9.16;56.02;101377.31;709269;1182;115450;-83
2022/04/28 01:56:47;;;;;;;6.15;3.10;;;;;;;9.13;56.93;101361.78;709312;1183;114687;-82
2022/04/28 02:11:51;;;;;;;5.45;3.00;;;;;;;8.98;56.39;101351.36;709118;1182;115075;-81
2022/04/28 02:26:54;;;;;;;7.70;2.90;;;;;;;8.86;56.40;101359.19;709614;1184;114996;-82
2022/04/28 02:41:58;;;;;;;4.53;2.20;;;;;;;8.91;57.17;101350.09;709003;1182;115489;-83
2022/04/28 02:57:01;;;;;;;3.60;2.20;;;;;;;8.83;56.92;101332.27;709419;1182;114888;-83
2022/04/28 03:12:05;;;;;;;4.45;2.30;;;;;;;8.72;57.00;101342.56;709654;1184;114430;-82
2022/04/28 03:27:09;;;;;;;5.50;2.07;;;;;;;8.71;56.86;101340.91;709163;1183;115570;-82
2022/04/28 03:42:12;;;;;;;14.20;6.15;;;;;;;8.70;57.39;101346.20;709520;1184;114477;-83
2022/04/28 03:57:16;;;;;;;15.15;6.10;;;;;;;8.90;58.14;101373.75;709156;1182;115023;-83
2022/04/28 04:12:20;;;;;;;8.70;3.70;;;;;;;9.13;59.29;101372.25;709529;1184;115067;-83
2022/04/28 04:27:23;;;;;;;11.73;5.17;;;;;;;9.31;59.50;101397.23;710121;1182;115135;-85
2022/04/28 04:42:26;;;;;;;16.45;7.35;;;;;;;9.14;59.53;101387.03;709710;1181;115332;-82
2022/04/28 04:57:30;;;;;;;6.50;3.45;;;;;;;9.23;59.67;101394.29;709433;1184;115388;-82
2022/04/28 05:12:33;;;;;;;7.20;3.30;;;;;;;9.46;59.50;101408.52;709581;1184;113805;-82
2022/04/28 05:27:37;;;;;;;8.10;2.90;;;;;;;9.98;60.46;101426.95;709172;1181;113908;-84
2022/04/28 05:58:05;;;;;;;5.75;2.60;;;;;;;9.04;63.83;101397.27;709682;1184;114484;-80
2022/04/28 06:13:09;;;;;;;16.90;9.30;;;;;;;8.96;65.69;101412.59;709328;1182;115114;-81
2022/04/28 06:28:13;;;;;;;21.10;9.50;;;;;;;9.53;66.96;101427.28;710054;1181;114058;-80
2022/04/28 06:43:18;;;;;;;10.20;4.90;;;;;;;10.41;69.09;101425.81;711166;1184;115651;-80
2022/04/28 06:58:21;;;;;;;10.60;4.40;;;;;;;11.11;68.05;101442.78;710455;1181;115227;-80
2022/04/28 07:13:25;;;;;;;6.50;3.60;;;;;;;11.44;68.04;101451.78;710087;1182;115831;-75
2022/04/28 07:28:29;;;;;;;12.70;5.65;;;;;;;11.75;65.81;101449.53;709863;1182;114765;-74
2022/04/28 07:43:33;;;;;;;6.10;3.45;;;;;;;13.10;66.75;101463.76;709999;1181;115159;-79
2022/04/28 07:58:37;;;;;;;39.00;18.80;;;;;;;14.19;62.90;101459.25;711317;1181;115323;-82
2022/04/28 08:13:41;;;;;;;5.60;2.70;;;;;;;15.68;61.70;101472.73;711065;1182;115520;-75
2022/04/28 08:28:44;;;;;;;3.00;2.30;;;;;;;16.92;59.18;101484.16;710885;1182;114175;-81
2022/04/28 08:43:50;;;;;;;5.70;3.00;;;;;;;17.95;58.19;101481.17;710820;1182;114486;-81
2022/04/28 08:58:54;;;;;;;3.47;2.57;;;;;;;18.94;56.12;101478.24;712074;1184;115839;-80
2022/04/28 09:14:13;;;;;;;3.83;2.23;;;;;;;19.61;54.53;101472.87;712288;1182;114624;-80
2022/04/28 09:29:18;;;;;;;6.75;3.70;;;;;;;18.76;53.23;101473.81;711064;1183;114545;-80
2022/04/28 09:44:22;;;;;;;5.60;2.80;;;;;;;19.39;53.56;101478.84;709996;1184;114923;-82
2022/04/28 09:59:28;;;;;;;9.23;5.80;;;;;;;19.65;52.83;101481.36;710220;1182;114616;-76
2022/04/28 10:14:38;;;;;;;5.87;4.50;;;;;;;20.16;52.30;101475.02;711783;1181;115771;-78
2022/04/28 10:45:28;;;;;;;8.20;4.50;;;;;;;21.09;50.80;101465.52;710062;1183;114280;-78
2022/04/28 11:00:36;;;;;;;5.45;2.90;;;;;;;19.66;50.25;101466.21;712246;1182;115689;-79
2022/04/28 11:15:39;;;;;;;10.10;3.90;;;;;;;19.12;51.22;101464.81;710335;1183;115641;-80
2022/04/28 11:30:43;;;;;;;4.80;2.70;;;;;;;20.53;50.75;101477.06;710118;1182;115223;-79
2022/04/28 11:45:49;;;;;;;3.10;2.20;;;;;;;21.59;48.54;101468.66;709479;1184;114963;-79
2022/04/28 12:00:54;;;;;;;3.80;2.30;;;;;;;21.83;47.70;101450.77;709668;1184;115390;-80
2022/04/28 12:16:04;;;;;;;3.50;2.25;;;;;;;21.80;46.14;101451.96;709488;1183;115695;-79
2022/04/28 12:31:11;;;;;;;2.75;2.10;;;;;;;22.34;45.61;101445.55;709130;1184;115012;-78
2022/04/28 12:46:45;;;;;;;3.50;2.53;;;;;;;22.38;44.71;101444.23;709074;1182;115679;-79
2022/04/28 13:01:49;;;;;;;4.05;2.50;;;;;;;23.45;45.07;101449.11;709090;1182;115733;-78
2022/04/28 13:16:53;;;;;;;53.40;7.35;;;;;;;23.08;43.48;101430.41;710187;1183;115895;-76
2022/04/28 13:32:01;;;;;;;4.10;2.30;;;;;;;23.75;42.72;101428.34;709280;1182;115850;-77
2022/04/28 13:47:07;;;;;;;3.20;1.70;;;;;;;23.95;42.61;101423.14;708946;1183;114505;-77
2022/04/28 14:02:12;;;;;;;5.55;2.65;;;;;;;23.01;42.00;101422.31;709316;1182;115809;-77
2022/04/28 14:17:18;;;;;;;13.10;6.20;;;;;;;30.60;39.74;101418.05;710034;1182;115524;-78
2022/04/28 14:32:22;;;;;;;4.40;2.80;;;;;;;36.51;36.14;101402.23;709667;1182;115050;-80
2022/04/28 14:47:26;;;;;;;8.23;4.63;;;;;;;32.77;35.76;101392.13;710606;1183;114284;-79
2022/04/28 15:02:31;;;;;;;3.00;2.07;;;;;;;31.66;37.03;101381.34;710227;1183;115600;-79
2022/04/28 15:17:36;;;;;;;10.00;7.30;;;;;;;25.60;38.54;101376.55;710589;1184;115294;-77
2022/04/28 15:32:43;;;;;;;3.40;2.60;;;;;;;23.22;39.94;101380.55;710275;1182;115878;-80
2022/04/28 15:47:47;;;;;;;2.80;2.20;;;;;;;22.67;41.19;101380.19;710620;1181;114710;-82
2022/04/28 16:02:50;;;;;;;7.85;5.45;;;;;;;20.99;40.51;101382.22;710558;1184;115542;-79
2022/04/28 16:17:55;;;;;;;5.20;2.05;;;;;;;20.14;41.55;101381.11;709345;1183;115500;-75
2022/04/28 16:33:00;;;;;;;3.80;2.40;;;;;;;20.00;42.09;101388.00;709177;1182;115844;-74
2022/04/28 16:48:03;;;;;;;15.00;6.23;;;;;;;19.35;42.04;101382.56;709619;1184;114199;-80
2022/04/28 17:18:30;;;;;;;12.65;7.20;;;;;;;18.35;41.83;101380.66;709605;1182;114897;-77
2022/04/28 17:33:34;;;;;;;48.30;31.10;;;;;;;17.87;42.55;101403.27;709566;1184;115702;-74
2022/04/28 17:48:38;;;;;;;53.40;25.40;;;;;;;17.04;43.36;101423.83;710068;1183;115415;-80
2022/04/28 18:04:03;;;;;;;54.40;23.00;;;;;;;16.33;43.74;101435.05;709335;1177;115984;-81
2022/04/28 18:19:07;;;;;;;97.40;47.60;;;;;;;15.64;44.97;101440.45;710059;1184;116025;-78
2022/04/28 18:34:11;;;;;;;47.20;22.20;;;;;;;15.02;46.19;101460.97;710685;1182;116186;-85
2022/04/28 18:49:16;;;;;;;152.30;44.45;;;;;;;14.34;46.01;101482.66;710272;1181;115677;-83
2022/04/28 19:04:24;;;;;;;132.90;39.90;;;;;;;13.88;47.12;101482.91;710186;1182;115698;-85
2022/04/28 19:19:28;;;;;;;47.00;12.70;;;;;;;13.91;47.51;101476.55;709857;1181;116335;-76
2022/04/28 19:34:32;;;;;;;54.40;21.30;;;;;;;13.55;48.88;101490.00;710019;1182;115873;-76
2022/04/28 19:49:37;;;;;;;13.05;5.15;;;;;;;12.80;48.49;101509.98;710041;1183;116153;-76
2022/04/28 20:04:42;;;;;;;189.30;43.80;;;;;;;12.39;48.58;101509.63;709696;1184;115845;-77
2022/04/28 20:19:45;;;;;;;49.75;16.90;;;;;;;12.21;49.64;101518.92;709595;1182;115298;-77
2022/04/28 20:34:52;;;;;;;46.70;15.30;;;;;;;12.01;50.15;101523.88;710376;1184;115776;-77
2022/04/28 20:49:56;;;;;;;65.95;19.80;;;;;;;11.85;49.92;101524.15;710134;1181;115277;-76
2022/04/28 21:05:00;;;;;;;68.10;29.30;;;;;;;11.75;50.97;101533.66;710396;1182;114808;-75
2022/04/28 21:20:07;;;;;;;41.20;18.30;;;;;;;11.44;50.85;101541.98;710252;1184;115839;-75
2022/04/28 21:35:12;;;;;;;134.10;36.70;;;;;;;11.07;51.00;101541.11;709844;1183;114389;-76
2022/04/28 21:50:16;;;;;;;57.10;22.95;;;;;;;10.99;52.03;101539.02;709937;1182;115373;-75
2022/04/28 22:20:42;;;;;;;32.15;10.85;;;;;;;10.20;52.17;101541.72;709352;1183;115700;-75
2022/04/28 22:35:46;;;;;;;22.90;9.50;;;;;;;9.99;52.74;101543.98;709574;1181;115697;-75
2022/04/28 22:50:50;;;;;;;15.20;7.35;;;;;;;10.01;52.06;101536.02;709048;1184;115543;-76
2022/04/28 23:06:13;;;;;;;23.00;9.75;;;;;;;10.02;51.47;101529.80;709462;1184;115609;-75
2022/04/28 23:21:17;;;;;;;31.53;12.90;;;;;;;9.85;53.89;101517.83;709608;1182;114533;-76
2022/04/28 23:51:44;;;;;;;16.70;7.40;;;;;;;9.55;53.11;101513.63;709229;1181;114764;-74
